Woodsetter North, FL

11:05 PM EST on January 16, 2017 (GMT -0500)
Crystal Lake | | Change Station

Elev 14 ft 26.29 °N, 80.14 °W | Updated 16 seconds ago

Partly Cloudy
Partly Cloudy
75.0 °F
Feels Like 77 °F
N
5.1
Wind Variable Wind from SE
Gusts 7.4 mph

Today
High -- | Low -- °F
--% Chance of Precip.
Yesterday
High -- | Low -- °F
Precip. -- in
Pressure 30.22 in
Visibility 10.0 miles
Clouds Few 3800 ft
Scattered Clouds 6000 ft
Heat Index 77 °F
Dew Point 64 °F
Humidity 68%
Rainfall 0.04 in
Snow Depth Not available.
7:09 AM 5:51 PM
Waning Gibbous, 76% visible
METAR KPMP 170353Z AUTO 10013KT 10SM FEW038 SCT060 24/17 A3022 RMK AO2 SLP233 T02390167
Pressure 30.22 in
Visibility 10.0 miles
Clouds Few 3800 ft
Scattered Clouds 6000 ft
Heat Index 77 °F
Dew Point 64 °F
Humidity 68%
Rainfall 0.04 in
Snow Depth Not available.
7:09 AM 5:51 PM
Waning Gibbous, 76% visible
METAR KPMP 170353Z AUTO 10013KT 10SM FEW038 SCT060 24/17 A3022 RMK AO2 SLP233 T02390167

Get Your Daily Forecast Email!

Thanks for signing up!

Be on the lookout for a verification email in your inbox.

You'll start receiving the daily forecast at 8 AM.

×

10-Day Weather Forecast

Almanac

Astronomy

Jan. 16, 2017 Rise Set
Actual Time
Civil Twilight
Nautical Twilight
Astronomical Twilight
Moon
Length of Visible Light
Length of Day
Tomorrow will be .
, % of the Moon is Illuminated

Today's Extremes

State Highs State Lows

Community

WunderPhotos

Upload Photos

1,962,540 photos uploaded!

WunderBlog® & News

Nearby

Air Quality

  Air Quality AQ Index Pollutant
Not available.

Snow Depth

Station Depth Elevation

Earthquake Activity

City Distance Mag. Time & Date
Minimum magnitude displayed is 2.5.

Coastal Water Temperatures

Place Temperature

Stations

Nearby Weather Stations

Station Location Temp. Windchill Dew Point Humidity Wind Precip. Elev Updated Type
                   

Watches & Warnings

There are currently no watches in effect.